Sacramento, CA (94247)

9:02 AM PDT on May 26, 2015 (GMT -0700)
APRSWXNET | | Change Station
CLOSE
Current Station
Personal Weather Station
Location: Sacramento, CA
Elevation: 18 ft
Nearby Weather Stations

Elev 18 ft 38.57 °N, 121.48 °W | Updated 26 minutes ago

Clear
Clear
59 °F
Feels Like 59 °F
N
1
Wind Variable Wind from SSE
Gusts 0.0 mph

Today
High -- | Low -- °F
--% Chance of Precip.
Yesterday
High -- | Low -- °F
Precip. -- in
5:46 AM 8:20 PM
First Quarter, 59% visible
Pressure 29.97 in
Visibility 10.0 miles
Clouds Clear
Dew Point 51 °F
Humidity 74%
Rainfall in
Snow Depth Not available.
UV 4 out of 12
Pollen 7.30 out of 12
Air Quality Not available.
Flu Activity Sporadic
METAR KSAC 261553Z 21009G15KT 10SM CLR 16/10 A2997 RMK AO2 SLP149 T01560100

More Conditions Fewer Conditions

Pressure 29.97 in
Visibility 10.0 miles
Clouds Clear
Dew Point 51 °F
Humidity 74%
Rainfall in
Snow Depth Not available.
UV 4 out of 12
Pollen 7.30 out of 12
Air Quality Not available.
Flu Activity Sporadic
METAR KSAC 261553Z 21009G15KT 10SM CLR 16/10 A2997 RMK AO2 SLP149 T01560100

More Conditions Fewer Conditions

10-Day Weather Forecast

Almanac

Astronomy

May. 26, 2015 Rise Set
Actual Time
Civil Twilight
Nautical Twilight
Astronomical Twilight
Moon
Length of Visible Light
Length of Day
Tomorrow will be .
, % of the Moon is Illuminated

Today's Extremes

State Highs State Lows

Community

WunderPhotos

Upload Photos

1,824,375 photos uploaded!

WunderBlogs® & News

Nearby

Air Quality

  Air Quality AQ Index Pollutant
Not available.

Snow Depth

Station Depth Elevation

Earthquake Activity

City Distance Mag. Time & Date
Minimum magnitude displayed is 2.5.

Coastal Water Temperatures

Place Temperature

Stations

Nearby Weather Stations

Station Location Temp. Windchill Dew Point Humidity Wind Precip. Elev Updated Type